Observations for JERSEY AIRPORT, United Kingdom (EGJJ)

EGJJ 112220Z AUTO 17017KT 9999 FEW009/// 07/05 Q1020
EGJJ 112150Z AUTO 17015KT 9999 SCT008/// 07/06 Q1020
EGJJ 112120Z 16017KT 9999 SCT009 07/06 Q1020
EGJJ 112050Z 15015KT 9999 FEW009 07/06 Q1020
EGJJ 112020Z 15014KT 9999 FEW008 08/06 Q1020
EGJJ 111950Z 14016KT 9999 FEW009 08/06 Q1020
EGJJ 111920Z 14018KT 9999 FEW009 08/06 Q1020
EGJJ 111850Z 14015KT 9999 FEW012 08/06 Q1020
EGJJ 111820Z 15013KT 9999 FEW012 08/06 Q1021
EGJJ 111750Z 15014KT 9999 FEW011 08/06 Q1021
EGJJ 111720Z 15015KT 9999 FEW011 08/06 Q1021
EGJJ 111650Z 15013KT 9999 FEW010 08/07 Q1021
EGJJ 111620Z 15013KT 9999 FEW009 08/07 Q1021
EGJJ 111550Z 15012KT 9999 FEW008 08/07 Q1022
EGJJ 111520Z 15012KT 9999 FEW008 08/07 Q1022
EGJJ 111450Z 16012KT 9999 FEW006 SCT008 08/07 Q1022 
EGJJ 111420Z 16011KT 9999 FEW006 SCT008 09/07 Q1022 
EGJJ 111350Z 17012KT 9999 SCT007 09/07 Q1023
EGJJ 111320Z 16011KT 9999 SCT006 09/08 Q1023
EGJJ 111250Z 16013KT 9999 FEW006 SCT008 09/08 Q1023 
EGJJ 111220Z 16013KT 9999 FEW005 SCT007 09/08 Q1023 
EGJJ 111150Z 15013KT 9999 FEW005 SCT006 09/08 Q1023 
EGJJ 111120Z 16014KT 9999 FEW005 SCT006 09/08 Q1024 
EGJJ 111050Z 16012KT 9999 BKN004 09/08 Q1024
EGJJ 111020Z 15013KT 9999 SCT003 BKN004 09/08 Q1025 
EGJJ 110950Z 16010KT 9999 SCT006 09/08 Q1025
EGJJ 110920Z 15009KT 9999 FEW006 09/08 Q1025
EGJJ 110850Z 15008KT 9999 FEW006 SCT022 09/08 Q1025 
EGJJ 110820Z 15007KT 9999 FEW007 SCT030 08/08 Q1025 
EGJJ 110750Z 16007KT 9999 FEW005 SCT019 BKN029 08/08 Q1025  
EGJJ 110720Z 14006KT 9999 FEW008 SCT012 08/07 Q1025 
EGJJ 110650Z 13004KT 9999 FEW011 SCT031 07/06 Q1025 
EGJJ 110620Z 12004KT 9999 FEW009 SCT031 07/07 Q1025 
EGJJ 110550Z 11005KT 9999 FEW011 SCT032 07/06 Q1025 
EGJJ 110520Z AUTO 13004KT 9999 SCT032/// 07/06 Q1025
EGJJ 110450Z AUTO 10003KT 9999 NCD 07/06 Q1025  
EGJJ 110420Z AUTO 12003KT 9999 NCD 07/06 Q1025  
EGJJ 110350Z AUTO 14003KT 9999 NCD 07/06 Q1026  
EGJJ 110320Z AUTO 13002KT 9999 NCD 08/06 Q1026  
EGJJ 110250Z AUTO 18002KT 9999 NCD 09/07 Q1026  
EGJJ 110220Z AUTO 20002KT 9999 NCD 08/07 Q1027  
EGJJ 110150Z AUTO 20002KT 9999 NCD 08/07 Q1027  
EGJJ 110120Z AUTO 18002KT 9999 NCD 08/06 Q1027  
EGJJ 110050Z AUTO 11002KT 9999 NCD 08/06 Q1027  
EGJJ 110020Z AUTO 14002KT 9999 BKN033/// 09/06 Q1027
EGJJ 102350Z AUTO 18003KT 9999 OVC034/// 09/07 Q1028
EGJJ 102320Z AUTO 16002KT 9999 OVC034/// 09/07 Q1028
EGJJ 102250Z AUTO VRB01KT 9999 SCT035/// 08/06 Q1028
EGJJ 102220Z AUTO 22001KT 9999 SCT037/// 09/07 Q1028
EGJJ 102150Z 19002KT CAVOK 09/06 Q1028